Time;durP1;ratioP1;P1;durP2;ratioP2;P2;SDS_P1;SDS_P2;PMS_P1;PMS_P2;Temp;Humidity;BMP_temperature;BMP_pressure;BME280_temperature;BME280_humidity;BME280_pressure;Samples;Min_cycle;Max_cycle;Signal;HPM_P1;HPM_P2
2024/03/22 00:02:16;;;;;;;77.72;31.90;;;;;;;;;;5136464;28;20028;-56
2024/03/22 00:04:42;;;;;;;73.53;30.07;;;;;;;;;;5115834;28;20063;-56
2024/03/22 00:07:07;;;;;;;80.50;31.87;;;;;;;;;;5132124;28;20463;-55
2024/03/22 00:09:33;;;;;;;81.93;31.63;;;;;;;;;;5125705;28;20035;-55
2024/03/22 00:11:58;;;;;;;72.90;31.15;;;;;;;;;;5122928;28;20027;-56
2024/03/22 00:14:24;;;;;;;79.07;32.33;;;;;;;;;;5125027;28;20039;-56
2024/03/22 00:16:49;;;;;;;77.63;31.02;;;;;;;;;;5114825;28;20063;-56
2024/03/22 00:19:14;;;;;;;77.87;32.07;;;;;;;;;;5129599;28;20060;-57
2024/03/22 00:21:40;;;;;;;85.60;33.33;;;;;;;;;;5122808;28;20034;-56
2024/03/22 00:24:05;;;;;;;80.60;31.83;;;;;;;;;;5132001;28;20105;-58
2024/03/22 00:26:30;;;;;;;80.27;29.83;;;;;;;;;;5117355;28;20032;-58
2024/03/22 00:28:58;;;;;;;77.38;32.28;;;;;;;;;;5127102;28;20091;-56
2024/03/22 00:31:23;;;;;;;82.30;33.83;;;;;;;;;;5124577;28;20053;-59
2024/03/22 00:33:49;;;;;;;75.15;32.38;;;;;;;;;;5131367;28;20327;-59
2024/03/22 00:36:14;;;;;;;84.07;31.20;;;;;;;;;;5122963;28;20043;-55
2024/03/22 00:38:39;;;;;;;82.23;31.53;;;;;;;;;;5126930;28;20038;-56
2024/03/22 00:41:06;;;;;;;73.40;31.08;;;;;;;;;;5117821;28;20055;-56
2024/03/22 00:43:32;;;;;;;81.23;31.97;;;;;;;;;;5128315;28;20049;-57
2024/03/22 00:45:58;;;;;;;72.27;30.03;;;;;;;;;;5134224;28;20280;-55
2024/03/22 00:48:24;;;;;;;;;;;;;;;;;;5135702;28;20099;-56
2024/03/22 00:50:49;;;;;;;75.27;31.63;;;;;;;;;;5127488;28;19923;-53
2024/03/22 00:53:15;;;;;;;76.73;32.10;;;;;;;;;;5118538;28;20032;-58
2024/03/22 00:55:40;;;;;;;84.43;32.07;;;;;;;;;;5134819;28;20087;-54
2024/03/22 00:58:05;;;;;;;77.80;30.73;;;;;;;;;;5123858;28;20027;-57
2024/03/22 01:00:31;;;;;;;81.73;34.40;;;;;;;;;;5127422;28;20028;-57
2024/03/22 01:02:56;;;;;;;81.20;32.70;;;;;;;;;;5131167;28;20283;-58
2024/03/22 01:05:22;;;;;;;79.90;32.55;;;;;;;;;;5134165;28;20039;-57
2024/03/22 01:07:48;;;;;;;88.27;34.43;;;;;;;;;;5130477;28;20140;-53
2024/03/22 01:10:13;;;;;;;80.72;31.00;;;;;;;;;;5131071;28;20095;-56
2024/03/22 01:12:39;;;;;;;76.33;30.63;;;;;;;;;;5135493;28;20031;-59
2024/03/22 01:15:05;;;;;;;79.65;31.83;;;;;;;;;;5127993;28;20027;-53
2024/03/22 01:17:31;;;;;;;79.32;33.17;;;;;;;;;;5134661;28;20103;-56
2024/03/22 01:19:56;;;;;;;82.00;32.20;;;;;;;;;;5134743;28;20024;-58
2024/03/22 01:22:23;;;;;;;81.75;32.58;;;;;;;;;;5135442;28;20256;-59
2024/03/22 01:24:48;;;;;;;69.63;30.80;;;;;;;;;;5130628;28;20117;-55
2024/03/22 01:27:14;;;;;;;79.65;32.20;;;;;;;;;;5130442;28;20392;-57
2024/03/22 01:29:39;;;;;;;81.30;33.53;;;;;;;;;;5123239;28;20039;-57
2024/03/22 01:32:05;;;;;;;76.70;31.92;;;;;;;;;;5130899;28;20256;-55
2024/03/22 01:34:30;;;;;;;74.55;32.50;;;;;;;;;;5133357;28;20079;-54
2024/03/22 01:36:56;;;;;;;79.13;32.90;;;;;;;;;;5123674;28;20040;-57
2024/03/22 01:39:21;;;;;;;76.43;32.53;;;;;;;;;;5129893;28;20028;-57
2024/03/22 01:41:47;;;;;;;78.85;31.55;;;;;;;;;;5134769;28;20019;-56
2024/03/22 01:44:13;;;;;;;81.50;32.45;;;;;;;;;;5116799;28;20036;-51
2024/03/22 01:46:44;;;;;;;83.95;33.80;;;;;;;;;;5133080;28;20035;-53
2024/03/22 01:49:09;;;;;;;72.73;30.07;;;;;;;;;;5126528;28;20046;-53
2024/03/22 01:51:36;;;;;;;79.00;31.92;;;;;;;;;;5116603;28;20256;-56
2024/03/22 01:54:03;;;;;;;83.18;31.80;;;;;;;;;;5130088;28;20087;-56
2024/03/22 01:56:28;;;;;;;76.60;32.37;;;;;;;;;;5123856;28;20043;-55
2024/03/22 01:58:54;;;;;;;77.27;29.90;;;;;;;;;;5128411;28;20335;-58
2024/03/22 02:01:20;;;;;;;;;;;;;;;;;;5114116;28;20024;-56
2024/03/22 02:03:45;;;;;;;75.23;33.00;;;;;;;;;;5134606;28;19949;-55
2024/03/22 02:06:11;;;;;;;72.80;30.77;;;;;;;;;;5127587;28;20036;-55
2024/03/22 02:08:37;;;;;;;79.43;32.92;;;;;;;;;;5134484;28;20034;-58
2024/03/22 02:11:03;;;;;;;82.75;33.67;;;;;;;;;;5134735;28;20032;-55
2024/03/22 02:13:28;;;;;;;75.90;34.83;;;;;;;;;;5115350;28;20039;-57
2024/03/22 02:15:53;;;;;;;72.83;31.80;;;;;;;;;;5123254;28;20039;-59
2024/03/22 02:18:19;;;;;;;79.83;31.33;;;;;;;;;;5126491;28;20057;-56
2024/03/22 02:20:44;;;;;;;85.10;32.43;;;;;;;;;;5124501;28;20088;-56
2024/03/22 02:23:10;;;;;;;71.65;30.42;;;;;;;;;;5137600;28;20121;-57
2024/03/22 02:25:35;;;;;;;71.30;29.98;;;;;;;;;;5135387;28;20092;-56
2024/03/22 02:28:01;;;;;;;70.25;29.70;;;;;;;;;;5132743;28;20038;-57
2024/03/22 02:30:26;;;;;;;67.15;30.20;;;;;;;;;;5131192;28;20047;-56
2024/03/22 02:32:52;;;;;;;64.65;28.58;;;;;;;;;;5137524;28;20057;-55
2024/03/22 02:35:17;;;;;;;64.97;29.10;;;;;;;;;;5126912;28;20031;-58
2024/03/22 02:37:42;;;;;;;69.87;29.33;;;;;;;;;;5136448;28;20024;-52
2024/03/22 02:40:08;;;;;;;78.57;31.42;;;;;;;;;;5138075;28;20509;-52
2024/03/22 02:42:34;;;;;;;79.82;30.00;;;;;;;;;;5137947;28;20036;-54
2024/03/22 02:44:59;;;;;;;74.25;31.13;;;;;;;;;;5137980;28;20019;-55
2024/03/22 02:47:25;;;;;;;69.35;30.60;;;;;;;;;;5129517;28;20019;-56
2024/03/22 02:49:50;;;;;;;61.03;28.75;;;;;;;;;;5138034;28;20047;-56
2024/03/22 02:52:16;;;;;;;72.32;31.25;;;;;;;;;;5137893;28;20034;-55
2024/03/22 02:54:41;;;;;;;70.17;30.10;;;;;;;;;;5130950;28;20050;-54
2024/03/22 02:57:07;;;;;;;75.60;30.48;;;;;;;;;;5131216;28;20047;-57
2024/03/22 02:59:32;;;;;;;74.80;32.40;;;;;;;;;;5137902;28;20061;-54
2024/03/22 03:01:58;;;;;;;65.60;27.98;;;;;;;;;;5124422;28;20077;-56
2024/03/22 03:04:23;;;;;;;64.32;29.10;;;;;;;;;;5135913;28;20027;-59
2024/03/22 03:06:49;;;;;;;74.63;29.43;;;;;;;;;;5132435;28;20023;-57
2024/03/22 03:09:14;;;;;;;66.53;30.90;;;;;;;;;;5136982;28;20046;-53
2024/03/22 03:11:40;;;;;;;59.75;27.90;;;;;;;;;;5137449;28;20050;-56
2024/03/22 03:14:06;;;;;;;65.60;28.15;;;;;;;;;;5137580;28;20034;-56
2024/03/22 03:16:32;;;;;;;58.65;28.15;;;;;;;;;;5136945;28;20036;-57
2024/03/22 03:18:57;;;;;;;56.90;27.13;;;;;;;;;;5133687;28;20069;-55
2024/03/22 03:21:23;;;;;;;64.03;29.23;;;;;;;;;;5137121;28;20031;-57
2024/03/22 03:23:48;;;;;;;64.38;26.52;;;;;;;;;;5137501;28;20260;-55
2024/03/22 03:26:14;;;;;;;69.13;28.52;;;;;;;;;;5136527;28;20031;-56
2024/03/22 03:28:39;;;;;;;59.80;26.02;;;;;;;;;;5137021;28;20027;-57
2024/03/22 03:31:05;;;;;;;70.80;29.88;;;;;;;;;;5132785;28;20034;-56
2024/03/22 03:33:30;;;;;;;64.90;26.93;;;;;;;;;;5136652;28;20039;-57
2024/03/22 03:35:56;;;;;;;66.07;28.70;;;;;;;;;;5136725;28;20307;-55
2024/03/22 03:38:22;;;;;;;49.95;24.00;;;;;;;;;;5121652;28;20036;-58
2024/03/22 03:40:47;;;;;;;56.67;25.65;;;;;;;;;;5134019;28;20024;-58
2024/03/22 03:43:13;;;;;;;53.97;25.27;;;;;;;;;;5136936;28;20031;-53
2024/03/22 03:45:39;;;;;;;56.60;25.15;;;;;;;;;;5136618;28;20024;-53
2024/03/22 03:48:04;;;;;;;59.60;25.33;;;;;;;;;;5136583;28;20036;-55
2024/03/22 03:50:29;;;;;;;61.45;26.05;;;;;;;;;;5133745;28;20047;-56
2024/03/22 03:52:55;;;;;;;58.47;25.27;;;;;;;;;;5127820;28;20046;-59
2024/03/22 03:55:21;;;;;;;58.25;26.25;;;;;;;;;;5125711;28;20027;-56
2024/03/22 03:57:47;;;;;;;59.92;26.40;;;;;;;;;;5115287;28;20035;-55
2024/03/22 04:00:12;;;;;;;62.20;27.10;;;;;;;;;;5130080;28;20043;-57
2024/03/22 04:02:38;;;;;;;62.43;27.73;;;;;;;;;;5126292;28;20324;-57
2024/03/22 04:05:03;;;;;;;60.05;26.25;;;;;;;;;;5136031;28;20028;-57
2024/03/22 04:07:29;;;;;;;53.40;23.98;;;;;;;;;;5111903;28;20100;-54
2024/03/22 04:09:54;;;;;;;63.65;25.95;;;;;;;;;;5132710;28;20023;-57
2024/03/22 04:12:20;;;;;;;58.58;24.73;;;;;;;;;;5136650;28;20035;-56
2024/03/22 04:14:45;;;;;;;68.80;26.38;;;;;;;;;;5135525;28;20038;-57
2024/03/22 04:17:11;;;;;;;53.67;23.03;;;;;;;;;;5122345;28;20061;-53
2024/03/22 04:19:36;;;;;;;57.40;24.95;;;;;;;;;;5132388;28;20028;-57
2024/03/22 04:22:02;;;;;;;60.25;26.30;;;;;;;;;;5135420;28;20028;-53
2024/03/22 04:24:27;;;;;;;63.88;24.25;;;;;;;;;;5132881;28;20028;-58
2024/03/22 04:26:53;;;;;;;59.77;24.67;;;;;;;;;;5106223;28;20040;-56
2024/03/22 04:29:18;;;;;;;62.90;26.77;;;;;;;;;;5120260;28;20024;-57
2024/03/22 04:31:43;;;;;;;52.77;22.27;;;;;;;;;;5135603;28;20039;-58
2024/03/22 04:34:10;;;;;;;54.65;23.52;;;;;;;;;;5122022;28;20023;-56
2024/03/22 04:36:36;;;;;;;51.37;22.37;;;;;;;;;;5135630;28;20043;-55
2024/03/22 04:39:02;;;;;;;64.13;24.77;;;;;;;;;;5122137;28;20268;-55
2024/03/22 04:41:27;;;;;;;49.17;22.67;;;;;;;;;;5114188;28;20051;-57
2024/03/22 04:43:52;;;;;;;55.87;23.17;;;;;;;;;;5131177;28;20034;-56
2024/03/22 04:46:18;;;;;;;53.73;22.90;;;;;;;;;;5133819;28;20043;-57
2024/03/22 04:48:43;;;;;;;58.83;24.08;;;;;;;;;;5128761;28;20297;-57
2024/03/22 04:51:09;;;;;;;60.33;24.37;;;;;;;;;;5117661;28;20043;-57
2024/03/22 04:53:34;;;;;;;51.55;23.42;;;;;;;;;;5125175;28;20027;-55
2024/03/22 04:56:00;;;;;;;55.17;24.17;;;;;;;;;;5116867;28;20032;-54
2024/03/22 04:58:25;;;;;;;61.13;24.33;;;;;;;;;;5129026;28;20285;-54
2024/03/22 05:00:56;;;;;;;48.77;22.13;;;;;;;;;;5134559;28;20256;-54
2024/03/22 05:03:21;;;;;;;58.03;24.43;;;;;;;;;;5133474;28;20295;-56
2024/03/22 05:05:47;;;;;;;53.92;21.38;;;;;;;;;;5135519;28;20268;-54
2024/03/22 05:08:12;;;;;;;57.20;24.25;;;;;;;;;;5134636;28;20175;-56
2024/03/22 05:10:38;;;;;;;54.30;23.20;;;;;;;;;;5135482;28;20065;-57
2024/03/22 05:13:03;;;;;;;53.15;23.42;;;;;;;;;;5134438;28;20031;-55
2024/03/22 05:15:29;;;;;;;55.13;22.45;;;;;;;;;;5135291;28;20070;-55
2024/03/22 05:17:55;;;;;;;44.63;21.93;;;;;;;;;;5132550;28;20036;-57
2024/03/22 05:20:21;;;;;;;;;;;;;;;;;;5124929;28;20035;-56
2024/03/22 05:22:49;;;;;;;56.10;23.50;;;;;;;;;;5124873;28;19912;-55
2024/03/22 05:25:15;;;;;;;52.10;21.70;;;;;;;;;;5124254;28;20031;-56
2024/03/22 05:27:41;;;;;;;49.23;22.73;;;;;;;;;;5131494;28;20252;-58
2024/03/22 05:30:07;;;;;;;;;;;;;;;;;;5135316;28;20295;-56
2024/03/22 05:32:33;;;;;;;55.03;22.10;;;;;;;;;;5134926;28;19912;-55
2024/03/22 05:34:58;;;;;;;41.55;18.35;;;;;;;;;;5135237;28;20031;-57
2024/03/22 05:37:24;;;;;;;44.73;20.07;;;;;;;;;;5133661;28;20083;-57
2024/03/22 05:39:49;;;;;;;50.17;19.97;;;;;;;;;;5130735;28;20264;-58
2024/03/22 05:42:15;;;;;;;52.72;21.95;;;;;;;;;;5134156;28;20541;-55
2024/03/22 05:44:40;;;;;;;44.50;21.10;;;;;;;;;;5124048;28;20040;-56
2024/03/22 05:47:06;;;;;;;47.78;20.88;;;;;;;;;;5134892;28;20275;-57
2024/03/22 05:49:31;;;;;;;52.30;23.63;;;;;;;;;;5133324;28;20055;-58
2024/03/22 05:51:57;;;;;;;54.17;21.85;;;;;;;;;;5134056;28;20028;-57
2024/03/22 05:54:22;;;;;;;53.08;23.65;;;;;;;;;;5135099;28;20028;-55
2024/03/22 05:56:48;;;;;;;47.03;19.93;;;;;;;;;;5137798;28;20035;-58
2024/03/22 05:59:13;;;;;;;55.15;23.50;;;;;;;;;;5138522;28;20403;-58
2024/03/22 06:01:39;;;;;;;46.50;20.87;;;;;;;;;;5138700;28;20024;-57
2024/03/22 06:04:05;;;;;;;46.70;20.53;;;;;;;;;;5127558;28;20256;-56
2024/03/22 06:06:34;;;;;;;45.38;21.65;;;;;;;;;;5136273;28;20264;-55
2024/03/22 06:09:03;;;;;;;43.93;21.10;;;;;;;;;;5124794;28;20028;-55
2024/03/22 06:11:29;;;;;;;46.43;19.97;;;;;;;;;;5138609;28;20255;-54
2024/03/22 06:13:55;;;;;;;40.53;19.20;;;;;;;;;;5128718;28;20264;-56
2024/03/22 06:16:20;;;;;;;48.45;21.17;;;;;;;;;;5134811;28;20043;-53
2024/03/22 06:18:46;;;;;;;47.92;20.77;;;;;;;;;;5135280;28;20020;-54
2024/03/22 06:21:14;;;;;;;44.70;20.52;;;;;;;;;;5138538;28;20055;-56
2024/03/22 06:23:39;;;;;;;45.27;18.57;;;;;;;;;;5122999;28;20095;-54
2024/03/22 06:26:04;;;;;;;48.63;19.93;;;;;;;;;;5134572;28;20256;-54
2024/03/22 06:28:30;;;;;;;48.92;19.48;;;;;;;;;;5117644;28;20057;-57
2024/03/22 06:30:56;;;;;;;43.90;19.97;;;;;;;;;;5135240;28;20036;-54
2024/03/22 06:33:21;;;;;;;50.60;21.83;;;;;;;;;;5136268;28;20256;-55
2024/03/22 06:35:47;;;;;;;40.30;18.77;;;;;;;;;;5138028;28;20288;-56
2024/03/22 06:38:13;;;;;;;42.25;19.40;;;;;;;;;;5138189;28;20027;-55
2024/03/22 06:40:39;;;;;;;40.03;20.30;;;;;;;;;;5130803;28;20023;-57
2024/03/22 06:43:05;;;;;;;46.57;19.47;;;;;;;;;;5135636;28;20077;-54
2024/03/22 06:45:30;;;;;;;39.47;18.87;;;;;;;;;;5117853;28;20264;-58
2024/03/22 06:47:56;;;;;;;41.85;18.90;;;;;;;;;;5137957;28;20260;-57
2024/03/22 06:50:24;;;;;;;39.88;19.38;;;;;;;;;;5135632;28;20043;-57
2024/03/22 06:52:51;;;;;;;38.77;18.23;;;;;;;;;;5137800;28;20035;-56
2024/03/22 06:55:17;;;;;;;46.03;20.63;;;;;;;;;;5137704;28;20276;-57
2024/03/22 06:57:44;;;;;;;40.38;19.42;;;;;;;;;;5132035;28;20271;-57
2024/03/22 07:00:10;;;;;;;45.87;19.97;;;;;;;;;;5123435;28;20024;-56
2024/03/22 07:02:35;;;;;;;38.50;18.60;;;;;;;;;;5105346;28;20273;-55
2024/03/22 07:05:01;;;;;;;39.00;17.47;;;;;;;;;;5131399;28;20103;-54
2024/03/22 07:07:26;;;;;;;38.22;18.40;;;;;;;;;;5129028;28;20024;-58
2024/03/22 07:09:52;;;;;;;46.58;17.48;;;;;;;;;;5130713;28;20038;-56
2024/03/22 07:12:17;;;;;;;38.78;18.00;;;;;;;;;;5127471;28;20057;-55
2024/03/22 07:14:42;;;;;;;39.33;18.07;;;;;;;;;;5137288;28;20043;-56
2024/03/22 07:17:08;;;;;;;43.75;21.15;;;;;;;;;;5127837;28;20028;-57
2024/03/22 07:19:34;;;;;;;48.00;20.23;;;;;;;;;;5131658;28;20027;-55
2024/03/22 07:22:00;;;;;;;40.92;19.42;;;;;;;;;;5127845;28;20024;-56
2024/03/22 07:24:25;;;;;;;41.30;19.35;;;;;;;;;;5134649;28;20038;-56
2024/03/22 07:26:51;;;;;;;44.83;19.23;;;;;;;;;;5130916;28;20028;-55
2024/03/22 07:29:16;;;;;;;41.53;18.67;;;;;;;;;;5131721;28;20036;-54
2024/03/22 07:31:42;;;;;;;40.80;19.17;;;;;;;;;;5127538;28;20043;-54
2024/03/22 07:34:07;;;;;;;41.30;19.05;;;;;;;;;;5125504;28;20034;-56
2024/03/22 07:36:37;;;;;;;45.85;21.80;;;;;;;;;;5136702;28;20058;-56
2024/03/22 07:39:05;;;;;;;44.43;21.23;;;;;;;;;;5136517;28;20015;-57
2024/03/22 07:41:32;;;;;;;48.87;21.07;;;;;;;;;;5135549;28;20254;-58
2024/03/22 07:43:58;;;;;;;52.58;22.77;;;;;;;;;;5133392;28;20264;-58
2024/03/22 07:46:24;;;;;;;51.65;21.42;;;;;;;;;;5126508;28;20059;-58
2024/03/22 07:48:49;;;;;;;43.57;20.50;;;;;;;;;;5136661;28;20045;-55
2024/03/22 07:51:15;;;;;;;53.88;21.50;;;;;;;;;;5128600;28;20024;-55
2024/03/22 07:53:40;;;;;;;47.78;20.83;;;;;;;;;;5129225;28;20100;-56
2024/03/22 07:56:06;;;;;;;54.50;21.73;;;;;;;;;;5136609;28;20023;-56
2024/03/22 07:58:31;;;;;;;43.58;19.90;;;;;;;;;;5134922;28;20267;-55
2024/03/22 08:00:57;;;;;;;47.80;21.60;;;;;;;;;;5121248;28;20024;-55
2024/03/22 08:03:23;;;;;;;52.63;23.65;;;;;;;;;;5128367;28;20091;-57
2024/03/22 08:05:49;;;;;;;51.97;22.90;;;;;;;;;;5136375;28;20039;-57
2024/03/22 08:08:15;;;;;;;58.13;24.77;;;;;;;;;;5125468;28;20306;-55
2024/03/22 08:10:40;;;;;;;60.45;26.60;;;;;;;;;;5131402;28;20059;-60
2024/03/22 08:13:05;;;;;;;61.80;26.83;;;;;;;;;;5130746;28;20038;-57
2024/03/22 08:15:31;;;;;;;56.75;22.92;;;;;;;;;;5135980;28;20055;-56
2024/03/22 08:18:00;;;;;;;54.55;21.88;;;;;;;;;;5107165;28;20028;-57
2024/03/22 08:20:25;;;;;;;56.40;24.83;;;;;;;;;;5127808;28;20024;-53
2024/03/22 08:22:51;;;;;;;44.58;20.63;;;;;;;;;;5129539;28;20345;-58
2024/03/22 08:25:17;;;;;;;50.33;23.50;;;;;;;;;;5129522;28;20039;-57
2024/03/22 08:27:45;;;;;;;57.60;24.23;;;;;;;;;;5135859;28;20036;-57
2024/03/22 08:30:11;;;;;;;52.47;23.43;;;;;;;;;;5131853;28;20029;-56
2024/03/22 08:32:37;;;;;;;55.08;22.40;;;;;;;;;;5131645;28;20275;-56
2024/03/22 08:35:04;;;;;;;52.92;24.38;;;;;;;;;;5122800;28;20024;-55
2024/03/22 08:37:33;;;;;;;53.17;21.93;;;;;;;;;;5119165;28;20067;-57
2024/03/22 08:39:58;;;;;;;51.90;22.17;;;;;;;;;;5133689;28;20253;-55
2024/03/22 08:42:24;;;;;;;52.70;23.20;;;;;;;;;;5118204;28;20248;-56
2024/03/22 08:44:49;;;;;;;61.33;23.23;;;;;;;;;;5117206;28;20107;-55
2024/03/22 08:47:15;;;;;;;49.95;22.23;;;;;;;;;;5123089;28;20036;-56
2024/03/22 08:49:43;;;;;;;56.17;22.65;;;;;;;;;;5134536;28;20028;-56
2024/03/22 08:52:08;;;;;;;49.87;23.10;;;;;;;;;;5107962;28;20035;-54
2024/03/22 08:54:35;;;;;;;52.33;21.80;;;;;;;;;;5128351;28;20256;-57
2024/03/22 08:57:00;;;;;;;52.50;21.92;;;;;;;;;;5134946;28;20036;-57
2024/03/22 08:59:26;;;;;;;52.40;22.83;;;;;;;;;;5135124;28;20081;-57
2024/03/22 09:01:52;;;;;;;;;;;;;;;;;;5130491;28;20023;-55
2024/03/22 09:04:19;;;;;;;48.80;20.57;;;;;;;;;;5135035;28;19919;-55
2024/03/22 09:06:45;;;;;;;46.90;22.38;;;;;;;;;;5121767;28;20355;-56
2024/03/22 09:09:11;;;;;;;43.63;21.37;;;;;;;;;;5128451;28;20024;-55
2024/03/22 09:11:37;;;;;;;54.35;23.70;;;;;;;;;;5128604;28;20029;-56
2024/03/22 09:14:02;;;;;;;51.57;22.97;;;;;;;;;;5119013;28;20043;-56
2024/03/22 09:16:28;;;;;;;48.80;20.73;;;;;;;;;;5131615;28;20280;-58
2024/03/22 09:18:54;;;;;;;44.80;19.97;;;;;;;;;;5135069;28;20040;-59
2024/03/22 09:21:19;;;;;;;;;;;;;;;;;;5131055;28;20024;-53
2024/03/22 09:23:45;;;;;;;41.13;20.20;;;;;;;;;;5129966;28;19961;-55
2024/03/22 09:26:10;;;;;;;50.50;21.57;;;;;;;;;;5133082;28;20032;-54
2024/03/22 09:28:35;;;;;;;43.97;20.70;;;;;;;;;;5134457;28;20031;-53
2024/03/22 09:31:06;;;;;;;45.28;21.52;;;;;;;;;;5135159;28;20031;-56
2024/03/22 09:33:33;;;;;;;46.93;19.23;;;;;;;;;;5138836;28;20099;-55
2024/03/22 09:35:58;;;;;;;43.08;19.90;;;;;;;;;;5139058;28;20329;-54
2024/03/22 09:38:24;;;;;;;48.93;21.97;;;;;;;;;;5132828;28;20044;-60
2024/03/22 09:40:54;;;;;;;51.97;20.27;;;;;;;;;;5137522;28;20110;-54
2024/03/22 09:43:20;;;;;;;45.43;20.83;;;;;;;;;;5138589;28;20083;-56
2024/03/22 09:45:46;;;;;;;49.63;21.35;;;;;;;;;;5137978;28;20259;-59
2024/03/22 09:48:12;;;;;;;40.50;18.52;;;;;;;;;;5132079;28;20089;-56
2024/03/22 09:50:38;;;;;;;60.65;21.63;;;;;;;;;;5137339;28;20035;-58
2024/03/22 09:53:03;;;;;;;48.67;22.40;;;;;;;;;;5138697;28;20031;-58
2024/03/22 09:55:30;;;;;;;41.50;20.17;;;;;;;;;;5124773;28;20039;-55
2024/03/22 09:57:55;;;;;;;40.10;19.42;;;;;;;;;;5133772;28;20063;-56
2024/03/22 10:00:22;;;;;;;61.65;23.92;;;;;;;;;;5137039;28;20027;-56
2024/03/22 10:02:49;;;;;;;56.00;23.10;;;;;;;;;;5132995;28;20012;-59
2024/03/22 10:05:15;;;;;;;52.45;20.98;;;;;;;;;;5134862;28;20270;-57
2024/03/22 10:07:41;;;;;;;42.47;20.27;;;;;;;;;;5132623;28;20032;-53
2024/03/22 10:10:07;;;;;;;43.70;21.17;;;;;;;;;;5138517;28;20076;-54
2024/03/22 10:12:32;;;;;;;70.32;23.70;;;;;;;;;;5136807;28;20032;-55
2024/03/22 10:14:58;;;;;;;49.58;23.98;;;;;;;;;;5138359;28;20055;-58
2024/03/22 10:17:25;;;;;;;63.07;24.40;;;;;;;;;;5138588;28;20040;-57
2024/03/22 10:19:51;;;;;;;75.20;31.20;;;;;;;;;;5120689;28;20027;-56
2024/03/22 10:22:17;;;;;;;88.37;31.53;;;;;;;;;;5128479;28;20256;-57
2024/03/22 10:24:43;;;;;;;72.53;30.70;;;;;;;;;;5138347;28;20267;-54
2024/03/22 10:27:09;;;;;;;60.38;24.42;;;;;;;;;;5138250;28;20040;-57
2024/03/22 10:29:35;;;;;;;54.72;25.55;;;;;;;;;;5137943;28;20028;-54
2024/03/22 10:32:01;;;;;;;62.25;26.40;;;;;;;;;;5133372;28;20103;-56
2024/03/22 10:34:28;;;;;;;62.42;27.88;;;;;;;;;;5138042;28;20023;-57
2024/03/22 10:36:53;;;;;;;;;;;;;;;;;;5138492;28;20055;-59
2024/03/22 10:39:19;;;;;;;69.10;24.30;;;;;;;;;;5120205;28;19937;-56
2024/03/22 10:41:48;;;;;;;62.03;23.63;;;;;;;;;;5128164;28;20091;-56
2024/03/22 10:44:13;;;;;;;50.77;22.20;;;;;;;;;;5137825;28;20268;-55
2024/03/22 10:46:43;;;;;;;46.22;21.58;;;;;;;;;;5135537;28;20271;-56
2024/03/22 10:49:09;;;;;;;47.37;20.37;;;;;;;;;;5127856;28;20091;-54
2024/03/22 10:51:35;;;;;;;43.90;19.60;;;;;;;;;;5131009;28;20280;-57
2024/03/22 10:54:01;;;;;;;;;;;;;;;;;;5135881;28;20027;-56
2024/03/22 10:56:26;;;;;;;38.80;16.15;;;;;;;;;;5133887;28;19991;-54
2024/03/22 10:58:52;;;;;;;44.80;19.58;;;;;;;;;;5135536;28;20062;-56
2024/03/22 11:01:21;;;;;;;39.17;16.50;;;;;;;;;;5137718;28;20038;-58
2024/03/22 11:03:47;;;;;;;36.37;17.97;;;;;;;;;;5137383;28;20038;-57
2024/03/22 11:06:12;;;;;;;45.37;16.37;;;;;;;;;;5137502;28;20256;-58
2024/03/22 11:08:38;;;;;;;37.07;16.70;;;;;;;;;;5137263;28;20027;-55
2024/03/22 11:11:10;;;;;;;38.00;16.17;;;;;;;;;;5136051;28;20035;-58
2024/03/22 11:13:37;;;;;;;39.70;15.97;;;;;;;;;;5124306;28;20031;-58
2024/03/22 11:16:02;;;;;;;29.05;13.93;;;;;;;;;;5136498;28;20297;-57
2024/03/22 11:18:28;;;;;;;36.72;16.13;;;;;;;;;;5137016;28;20028;-57
2024/03/22 11:20:53;;;;;;;31.70;15.80;;;;;;;;;;5119275;28;20028;-57
2024/03/22 11:23:19;;;;;;;38.33;16.37;;;;;;;;;;5135251;28;20252;-57
2024/03/22 11:25:46;;;;;;;32.55;15.90;;;;;;;;;;5123640;28;20035;-57
2024/03/22 11:28:11;;;;;;;35.33;15.65;;;;;;;;;;5135565;28;20038;-57
2024/03/22 11:30:37;;;;;;;32.33;14.13;;;;;;;;;;5132445;28;20039;-56
2024/03/22 11:33:03;;;;;;;32.20;13.02;;;;;;;;;;5130434;28;20025;-54
2024/03/22 11:35:29;;;;;;;30.23;14.52;;;;;;;;;;5122824;28;20040;-56
2024/03/22 11:37:56;;;;;;;27.50;13.93;;;;;;;;;;5132464;28;20054;-57
2024/03/22 11:40:22;;;;;;;25.77;12.50;;;;;;;;;;5128001;28;20457;-55
2024/03/22 11:42:50;;;;;;;26.90;13.13;;;;;;;;;;5126659;28;20081;-56
2024/03/22 11:45:17;;;;;;;33.90;14.57;;;;;;;;;;5135339;28;20047;-56
2024/03/22 11:47:43;;;;;;;30.83;13.50;;;;;;;;;;5136512;28;20260;-56
2024/03/22 11:50:09;;;;;;;22.30;10.93;;;;;;;;;;5132706;28;20264;-57
2024/03/22 11:52:35;;;;;;;27.10;12.90;;;;;;;;;;5116307;28;20023;-55
2024/03/22 11:55:01;;;;;;;25.33;11.80;;;;;;;;;;5135626;28;20283;-59
2024/03/22 11:57:26;;;;;;;21.52;11.85;;;;;;;;;;5134637;28;20730;-57
2024/03/22 11:59:52;;;;;;;25.60;12.10;;;;;;;;;;5103576;28;20047;-57
2024/03/22 12:02:17;;;;;;;27.20;12.25;;;;;;;;;;5128982;28;20028;-59
2024/03/22 12:04:43;;;;;;;29.27;10.77;;;;;;;;;;5130449;28;20087;-58
2024/03/22 12:07:16;;;;;;;21.17;11.95;;;;;;;;;;5136191;28;20034;-56
2024/03/22 12:09:42;;;;;;;24.77;11.67;;;;;;;;;;5128561;28;20040;-57
2024/03/22 12:12:08;;;;;;;20.63;10.23;;;;;;;;;;5136339;28;20278;-58
2024/03/22 12:14:34;;;;;;;32.00;12.48;;;;;;;;;;5132233;28;20035;-56
2024/03/22 12:17:01;;;;;;;21.48;10.18;;;;;;;;;;5136383;28;20035;-56
2024/03/22 12:19:27;;;;;;;32.40;13.93;;;;;;;;;;5135627;28;20102;-56
2024/03/22 12:21:53;;;;;;;33.72;13.73;;;;;;;;;;5128163;28;20264;-59
2024/03/22 12:24:18;;;;;;;39.13;15.85;;;;;;;;;;5132000;28;20031;-56
2024/03/22 12:26:43;;;;;;;39.47;15.33;;;;;;;;;;5133974;28;20040;-58
2024/03/22 12:29:10;;;;;;;45.88;16.80;;;;;;;;;;5134500;28;20050;-57
2024/03/22 12:31:39;;;;;;;45.10;16.00;;;;;;;;;;5135856;28;20046;-57
2024/03/22 12:34:04;;;;;;;42.20;14.97;;;;;;;;;;5122498;28;20260;-58
2024/03/22 12:36:30;;;;;;;45.83;14.93;;;;;;;;;;5122656;28;20284;-58
2024/03/22 12:38:55;;;;;;;43.25;14.95;;;;;;;;;;5127701;28;20052;-59
2024/03/22 12:41:21;;;;;;;46.20;17.92;;;;;;;;;;5124632;28;20024;-59
2024/03/22 12:43:47;;;;;;;44.50;16.05;;;;;;;;;;5135202;28;20038;-59
2024/03/22 12:46:12;;;;;;;40.40;14.63;;;;;;;;;;5127564;28;20043;-59
2024/03/22 12:48:37;;;;;;;44.97;15.13;;;;;;;;;;5131345;28;20297;-59
2024/03/22 12:51:04;;;;;;;;;;;;;;;;;;5110421;28;20053;-59
2024/03/22 12:53:29;;;;;;;24.30;10.73;;;;;;;;;;5125324;28;19911;-57
2024/03/22 12:55:55;;;;;;;22.50;10.18;;;;;;;;;;5135199;28;20091;-58
2024/03/22 12:58:20;;;;;;;25.15;8.82;;;;;;;;;;5135484;28;20044;-56
2024/03/22 13:00:46;;;;;;;19.98;8.75;;;;;;;;;;5135665;28;20032;-57
2024/03/22 13:03:13;;;;;;;19.65;10.18;;;;;;;;;;5132159;28;20035;-57
2024/03/22 13:05:39;;;;;;;25.43;12.87;;;;;;;;;;5134523;28;20058;-58
2024/03/22 13:08:05;;;;;;;25.30;13.13;;;;;;;;;;5135504;28;20270;-58
2024/03/22 13:10:30;;;;;;;24.42;11.63;;;;;;;;;;5130890;28;20055;-57
2024/03/22 13:12:55;;;;;;;30.73;13.77;;;;;;;;;;5133342;28;20020;-59
2024/03/22 13:15:21;;;;;;;26.60;11.73;;;;;;;;;;5123491;28;20043;-58
2024/03/22 13:17:46;;;;;;;29.67;13.88;;;;;;;;;;5133989;28;20291;-57
2024/03/22 13:20:14;;;;;;;27.00;12.20;;;;;;;;;;5122922;28;20092;-58
2024/03/22 13:22:40;;;;;;;26.03;13.63;;;;;;;;;;5133280;28;20027;-56
2024/03/22 13:25:09;;;;;;;28.25;12.98;;;;;;;;;;5123278;28;20274;-56
2024/03/22 13:27:34;;;;;;;31.43;12.83;;;;;;;;;;5135091;28;20032;-58
2024/03/22 13:30:00;;;;;;;27.83;12.68;;;;;;;;;;5127236;28;20442;-59
2024/03/22 13:32:26;;;;;;;27.67;12.95;;;;;;;;;;5129056;28;20035;-57
2024/03/22 13:34:52;;;;;;;27.15;12.65;;;;;;;;;;5130288;28;20061;-59
2024/03/22 13:37:18;;;;;;;25.13;12.13;;;;;;;;;;5135136;28;20406;-57
2024/03/22 13:39:47;;;;;;;38.53;12.90;;;;;;;;;;5129909;28;20104;-58
2024/03/22 13:42:12;;;;;;;29.80;12.87;;;;;;;;;;5113084;28;20030;-57
2024/03/22 13:44:38;;;;;;;28.60;13.30;;;;;;;;;;5134067;28;20272;-59
2024/03/22 13:47:04;;;;;;;31.75;13.48;;;;;;;;;;5132733;28;20047;-56
2024/03/22 13:49:30;;;;;;;26.45;12.32;;;;;;;;;;5123680;28;20065;-55
2024/03/22 13:51:58;;;;;;;22.75;11.65;;;;;;;;;;5127199;28;20040;-58
2024/03/22 13:54:23;;;;;;;34.03;13.03;;;;;;;;;;5134282;28;20027;-58
2024/03/22 13:56:49;;;;;;;26.63;12.67;;;;;;;;;;5115928;28;20313;-54
2024/03/22 13:59:15;;;;;;;29.92;13.82;;;;;;;;;;5134499;28;20031;-58
2024/03/22 14:01:42;;;;;;;30.80;13.83;;;;;;;;;;5113154;28;20050;-58
2024/03/22 14:04:10;;;;;;;29.43;14.27;;;;;;;;;;5116158;28;20275;-57
2024/03/22 14:06:37;;;;;;;38.17;13.13;;;;;;;;;;5131251;28;20320;-56
2024/03/22 14:09:03;;;;;;;34.22;13.77;;;;;;;;;;5134666;28;20256;-58
2024/03/22 14:11:30;;;;;;;32.07;13.40;;;;;;;;;;5134477;28;20027;-58
2024/03/22 14:13:55;;;;;;;31.43;13.33;;;;;;;;;;5128696;28;20261;-58